Погода Адамантинана неделю

Сан-Паулу, Бразилия

21 - 27 июля
  • 21июля
    Сегодня
    +16°
    +32°
    Ясно и безоблачно
    ВремяПогодаТемператураВлажностьДавлениеВетер, м/сВероятность осадков
    00:00Ясно и безоблачно+20°C44 %727 мм3.7 м/с5 %
    03:00Ясно и безоблачно+19°C49 %726 мм3.8 м/с5 %
    06:00Ясно и безоблачно+18°C44 %726 мм3.9 м/с5 %
    09:00Ясно и безоблачно+20°C44 %728 мм3.7 м/с5 %
    12:00Ясно и безоблачно+28°C31 %728 мм3.0 м/с5 %
    15:00Ясно и безоблачно+32°C23 %726 мм1.9 м/с5 %
    18:00Ясно и безоблачно+29°C32 %726 мм1.7 м/с5 %
    21:00Ясно и безоблачно+23°C40 %727 мм2.4 м/с5 %
  • 22июля
    Понедельник
    +17°
    +32°
    Ясно и безоблачно
    ВремяПогодаТемператураВлажностьДавлениеВетер, м/сВероятность осадков
    00:00Ясно и безоблачно+20°C49 %727 мм2.4 м/с5 %
    03:00Ясно и безоблачно+18°C58 %726 мм2.6 м/с5 %
    06:00Ясно и безоблачно+17°C63 %727 мм2.7 м/с5 %
    09:00Ясно и безоблачно+21°C52 %729 мм2.7 м/с5 %
    12:00Ясно и безоблачно+30°C28 %729 мм2.5 м/с5 %
    15:00Ясно и безоблачно+32°C22 %727 мм1.3 м/с5 %
    18:00Ясно и безоблачно+28°C29 %727 мм2.3 м/с5 %
    21:00Ясно и безоблачно+24°C38 %727 мм3.3 м/с5 %
  • 23июля
    Вторник
    +17°
    +33°
    Ясно и безоблачно
    ВремяПогодаТемператураВлажностьДавлениеВетер, м/сВероятность осадков
    00:00Ясно и безоблачно+22°C49 %728 мм3.3 м/с5 %
    03:00Ясно и безоблачно+20°C53 %727 мм3.4 м/с5 %
    06:00Ясно и безоблачно+19°C59 %727 мм3.5 м/с5 %
    09:00Ясно и безоблачно+22°C47 %729 мм3.3 м/с5 %
    12:00Ясно и безоблачно+30°C29 %729 мм4.2 м/с5 %
    15:00Ясно и безоблачно+32°C23 %727 мм2.7 м/с5 %
    18:00Практически безоблачно+28°C31 %727 мм2.1 м/с5 %
    21:00Ясно и безоблачно+25°C36 %727 мм3.5 м/с5 %
  • 24июля
    Среда
    +18°
    +33°
    Небольшая облачность
    ВремяПогодаТемператураВлажностьДавлениеВетер, м/сВероятность осадков
    00:00Практически безоблачно+22°C42 %727 мм3.1 м/с5 %
    03:00Практически безоблачно+19°C50 %726 мм3.9 м/с5 %
    06:00Ясно и безоблачно+19°C56 %726 мм4.2 м/с5 %
    09:00Ясно и безоблачно+21°C47 %728 мм4.0 м/с5 %
    12:00Небольшая облачность+30°C28 %729 мм4.0 м/с5 %
    15:00Небольшая облачность+32°C23 %727 мм3.1 м/с5 %
    18:00Ясно и безоблачно+28°C33 %726 мм2.3 м/с5 %
    21:00Ясно и безоблачно+24°C39 %727 мм2.1 м/с5 %
  • 25июля
    Четверг
    +19°
    +34°
    Ясно и безоблачно
    ВремяПогодаТемператураВлажностьДавлениеВетер, м/сВероятность осадков
    00:00Ясно и безоблачно+23°C43 %727 мм3.1 м/с5 %
    03:00Ясно и безоблачно+21°C46 %726 мм2.8 м/с5 %
    06:00Ясно и безоблачно+19°C51 %726 мм3.2 м/с5 %
    09:00Ясно и безоблачно+22°C44 %728 мм2.8 м/с5 %
    12:00Ясно и безоблачно+31°C26 %728 мм2.8 м/с5 %
    15:00Ясно и безоблачно+33°C22 %725 мм1.7 м/с5 %
    18:00Ясно и безоблачно+30°C30 %725 мм1.6 м/с5 %
    21:00Ясно и безоблачно+26°C36 %725 мм2.1 м/с5 %
Мы используем cookies
Соглашаюсь